Time;durP1;ratioP1;P1;durP2;ratioP2;P2;SDS_P1;SDS_P2;PMS_P1;PMS_P2;Temp;Humidity;BMP_temperature;BMP_pressure;BME280_temperature;BME280_humidity;BME280_pressure;Samples;Min_cycle;Max_cycle;Signal;HPM_P1;HPM_P2
2023/03/13 00:01:27;;;;;;;26.13;4.72;;;9.50;99.90;;;;;;6152528;23;20025;-90
2023/03/13 00:03:54;;;;;;;20.00;5.10;;;9.50;99.90;;;;;;6128332;23;20089;-88
2023/03/13 00:06:21;;;;;;;24.15;5.00;;;9.50;99.90;;;;;;6152122;23;20504;-88
2023/03/13 00:08:46;;;;;;;23.90;5.07;;;9.50;99.90;;;;;;6152177;23;20469;-88
2023/03/13 00:11:14;;;;;;;28.83;5.28;;;9.50;99.90;;;;;;6127708;23;20013;-88
2023/03/13 00:13:40;;;;;;;31.50;5.75;;;9.50;99.90;;;;;;6151954;23;20056;-88
2023/03/13 00:16:08;;;;;;;23.00;4.88;;;9.50;99.90;;;;;;6127682;23;20021;-88
2023/03/13 00:18:34;;;;;;;24.90;4.47;;;9.50;99.90;;;;;;6127444;23;20037;-89
2023/03/13 00:21:01;;;;;;;25.67;5.75;;;9.50;99.90;;;;;;6151203;23;20021;-89
2023/03/13 00:23:28;;;;;;;27.25;5.20;;;9.60;99.90;;;;;;6152843;23;20020;-89
2023/03/13 00:26:05;;;;;;;26.42;4.72;;;9.50;99.90;;;;;;6127572;23;20049;-89
2023/03/13 00:28:32;;;;;;;27.38;5.40;;;9.50;99.90;;;;;;6151775;23;20105;-88
2023/03/13 00:31:03;;;;;;;22.08;4.72;;;9.50;99.90;;;;;;6152587;23;20013;-89
2023/03/13 00:33:30;;;;;;;21.83;4.38;;;9.50;99.90;;;;;;6151853;23;20017;-89
2023/03/13 00:36:00;;;;;;;25.55;4.13;;;9.50;99.90;;;;;;6127838;23;20009;-88
2023/03/13 00:38:28;;;;;;;21.20;4.82;;;9.50;99.90;;;;;;6127558;23;20018;-89
2023/03/13 00:41:11;;;;;;;24.67;4.63;;;9.50;99.90;;;;;;6152614;23;20014;-88
2023/03/13 00:43:37;;;;;;;;;;;9.40;99.90;;;;;;6153021;23;20354;-88
2023/03/13 00:46:02;;;;;;;22.00;4.22;;;9.40;99.90;;;;;;6127663;23;20340;-88
2023/03/13 00:48:29;;;;;;;17.83;4.00;;;9.40;99.90;;;;;;6152284;23;20021;-88
2023/03/13 00:50:54;;;;;;;26.40;4.97;;;9.40;99.90;;;;;;6127499;23;20005;-88
2023/03/13 00:53:20;;;;;;;22.02;4.40;;;9.40;99.90;;;;;;6127176;23;20343;-89
2023/03/13 00:55:53;;;;;;;24.02;5.43;;;9.40;99.90;;;;;;6128820;23;20072;-89
2023/03/13 00:58:19;;;;;;;17.90;4.05;;;9.40;99.90;;;;;;6129495;23;20032;-89
2023/03/13 01:00:45;;;;;;;26.05;4.68;;;9.40;99.90;;;;;;6154371;23;20017;-88
2023/03/13 01:03:10;;;;;;;22.38;4.90;;;9.40;99.90;;;;;;6153693;23;20377;-89
2023/03/13 01:05:36;;;;;;;22.42;5.60;;;9.40;99.90;;;;;;6130000;23;20357;-89
2023/03/13 01:08:01;;;;;;;20.88;5.18;;;9.40;99.90;;;;;;6129667;23;20495;-89
2023/03/13 01:10:27;;;;;;;19.92;4.40;;;9.40;99.90;;;;;;6129401;23;20020;-89
2023/03/13 01:12:53;;;;;;;18.35;4.32;;;9.40;99.90;;;;;;6129910;23;20048;-89
2023/03/13 01:15:18;;;;;;;22.25;4.53;;;9.40;99.90;;;;;;6154045;23;20292;-89
2023/03/13 01:17:45;;;;;;;22.25;4.50;;;9.40;99.90;;;;;;6129854;23;20021;-88
2023/03/13 01:20:11;;;;;;;19.80;4.00;;;9.40;99.90;;;;;;6129976;23;20024;-88
2023/03/13 01:22:37;;;;;;;19.38;4.63;;;9.40;99.90;;;;;;6129327;23;20057;-90
2023/03/13 01:25:03;;;;;;;20.40;4.63;;;9.40;99.90;;;;;;6154867;23;20357;-89
2023/03/13 01:27:29;;;;;;;21.35;4.45;;;9.40;99.90;;;;;;6128870;23;20080;-89
2023/03/13 01:29:55;;;;;;;18.25;4.05;;;9.40;99.90;;;;;;6154092;23;20401;-89
2023/03/13 01:32:21;;;;;;;19.77;4.25;;;9.40;99.90;;;;;;6129480;23;20092;-89
2023/03/13 01:34:46;;;;;;;22.10;6.45;;;9.40;99.90;;;;;;6129558;23;20021;-89
2023/03/13 01:37:12;;;;;;;26.83;5.68;;;9.40;99.90;;;;;;6154320;23;20072;-88
2023/03/13 01:39:37;;;;;;;28.25;4.43;;;9.50;99.90;;;;;;6129141;23;20072;-89
2023/03/13 01:42:04;;;;;;;17.10;3.75;;;9.40;99.90;;;;;;6128979;23;20018;-89
2023/03/13 01:44:52;;;;;;;23.13;4.72;;;9.40;99.90;;;;;;6153049;23;20100;-89
2023/03/13 01:47:18;;;;;;;18.17;4.07;;;9.40;99.90;;;;;;6153283;23;20068;-88
2023/03/13 01:49:44;;;;;;;24.95;5.07;;;9.50;99.90;;;;;;6152866;23;20009;-88
2023/03/13 01:52:24;;;;;;;22.08;4.45;;;9.50;99.90;;;;;;6128626;23;20018;-88
2023/03/13 01:55:03;;;;;;;14.07;3.65;;;9.50;99.90;;;;;;6153711;23;20010;-88
2023/03/13 01:57:38;;;;;;;23.45;5.43;;;9.50;99.90;;;;;;6153028;23;20053;-89
2023/03/13 02:00:10;;;;;;;17.80;3.78;;;9.50;99.90;;;;;;6153358;23;20028;-88
2023/03/13 02:02:39;;;;;;;20.85;3.47;;;9.50;99.90;;;;;;6153731;23;20053;-89
2023/03/13 02:05:05;;;;;;;17.17;3.90;;;9.50;99.90;;;;;;6153729;23;20080;-88
2023/03/13 02:07:44;;;;;;;20.75;5.38;;;9.50;99.90;;;;;;6125974;23;20025;-89
2023/03/13 02:10:11;;;;;;;21.80;4.32;;;9.50;99.90;;;;;;6153587;23;20064;-90
2023/03/13 02:12:38;;;;;;;17.92;5.03;;;9.50;99.90;;;;;;6128527;23;20018;-89
2023/03/13 02:15:10;;;;;;;18.75;4.38;;;9.50;99.90;;;;;;6129246;23;20088;-89
2023/03/13 02:17:37;;;;;;;17.80;4.07;;;9.50;99.90;;;;;;6153581;23;20021;-89
2023/03/13 02:20:03;;;;;;;19.63;4.28;;;9.50;99.90;;;;;;6153684;23;20096;-89
2023/03/13 02:23:07;;;;;;;18.20;4.05;;;9.40;99.90;;;;;;6129146;23;20100;-90
2023/03/13 02:25:52;;;;;;;15.20;3.25;;;9.40;99.90;;;;;;6130913;23;20096;-89
2023/03/13 02:28:21;;;;;;;22.13;3.80;;;9.40;99.90;;;;;;6153222;23;20072;-90
2023/03/13 02:30:50;;;;;;;14.45;3.83;;;9.40;99.90;;;;;;6153674;23;20471;-90
2023/03/13 02:33:18;;;;;;;19.15;4.05;;;9.40;99.90;;;;;;6153621;23;20014;-90
2023/03/13 02:35:44;;;;;;;16.35;3.65;;;9.40;99.90;;;;;;6128151;23;20010;-90
2023/03/13 02:38:15;;;;;;;16.00;3.50;;;9.40;99.90;;;;;;6128913;23;20067;-90
2023/03/13 02:40:44;;;;;;;16.90;3.72;;;9.40;99.90;;;;;;6152935;23;20091;-89
2023/03/13 02:43:32;;;;;;;13.57;3.80;;;9.40;99.90;;;;;;6129063;23;20365;-89
2023/03/13 02:46:12;;;;;;;13.63;3.45;;;9.40;99.90;;;;;;6153085;23;20155;-90
2023/03/13 02:48:41;;;;;;;15.32;3.58;;;9.40;99.90;;;;;;6152603;23;20044;-90
2023/03/13 02:51:17;;;;;;;10.93;3.70;;;9.50;99.90;;;;;;6153287;23;20013;-89
2023/03/13 02:53:45;;;;;;;13.85;3.50;;;9.50;99.90;;;;;;6128877;23;20010;-89
2023/03/13 02:56:13;;;;;;;13.30;3.72;;;9.50;99.90;;;;;;6128651;23;20010;-89
2023/03/13 02:58:43;;;;;;;11.07;2.78;;;9.50;99.90;;;;;;6152634;23;20028;-89
2023/03/13 03:01:08;;;;;;;13.88;3.60;;;9.50;99.90;;;;;;6153726;23;20010;-89
2023/03/13 03:03:35;;;;;;;10.68;3.25;;;9.50;99.90;;;;;;6152923;23;20330;-89
2023/03/13 03:06:02;;;;;;;13.32;3.83;;;9.60;99.90;;;;;;6128685;23;20136;-90
2023/03/13 03:08:28;;;;;;;9.00;2.65;;;9.50;99.90;;;;;;6152717;23;20028;-90
2023/03/13 03:10:53;;;;;;;10.95;3.35;;;9.60;99.90;;;;;;6152964;23;20017;-90
2023/03/13 03:13:19;;;;;;;9.75;3.10;;;9.60;99.90;;;;;;6129027;23;20017;-90
2023/03/13 03:15:44;;;;;;;10.20;2.80;;;9.60;99.90;;;;;;6127797;23;20006;-90
2023/03/13 03:18:10;;;;;;;11.55;2.67;;;9.70;99.90;;;;;;6152657;23;20017;-89
2023/03/13 03:20:36;;;;;;;11.10;3.17;;;9.70;99.90;;;;;;6153469;23;20413;-90
2023/03/13 03:23:01;;;;;;;11.80;3.13;;;9.70;99.90;;;;;;6152687;23;20672;-90
2023/03/13 03:25:27;;;;;;;10.48;3.08;;;9.70;99.90;;;;;;6153404;23;20055;-90
2023/03/13 03:27:53;;;;;;;11.00;2.92;;;9.80;99.90;;;;;;6152310;23;20044;-90
2023/03/13 03:30:18;;;;;;;9.73;3.13;;;9.80;99.90;;;;;;6128194;23;20357;-90
2023/03/13 03:32:44;;;;;;;8.68;2.67;;;9.80;99.90;;;;;;6152493;23;20021;-90
2023/03/13 03:35:09;;;;;;;9.65;2.50;;;9.90;99.90;;;;;;6152342;23;20014;-90
2023/03/13 03:37:35;;;;;;;8.32;2.40;;;9.90;99.90;;;;;;6128309;23;20451;-91
2023/03/13 03:40:01;;;;;;;9.38;2.95;;;9.90;99.90;;;;;;6152039;23;20053;-89
2023/03/13 03:42:26;;;;;;;10.75;2.85;;;9.90;99.90;;;;;;6153141;23;20052;-90
2023/03/13 03:44:52;;;;;;;9.48;2.95;;;10.00;99.90;;;;;;6153144;23;20507;-91
2023/03/13 03:47:17;;;;;;;12.52;3.08;;;10.00;99.90;;;;;;6152968;23;20022;-90
2023/03/13 03:49:43;;;;;;;9.77;2.88;;;10.00;99.90;;;;;;6128433;23;20010;-91
2023/03/13 03:52:08;;;;;;;8.48;2.78;;;10.00;99.90;;;;;;6127977;23;20022;-90
2023/03/13 03:54:34;;;;;;;8.73;2.88;;;10.00;99.90;;;;;;6153130;23;20018;-91
2023/03/13 03:57:00;;;;;;;8.45;2.67;;;10.00;99.90;;;;;;6128572;23;20022;-91
2023/03/13 03:59:25;;;;;;;10.52;3.47;;;10.10;99.90;;;;;;6152165;23;20363;-91
2023/03/13 04:01:51;;;;;;;7.05;2.45;;;10.10;99.90;;;;;;6152632;23;20021;-91
2023/03/13 04:04:16;;;;;;;7.10;2.63;;;10.10;99.90;;;;;;6128414;23;20377;-91
2023/03/13 04:06:42;;;;;;;8.10;2.85;;;10.10;99.90;;;;;;6152844;23;20083;-90
2023/03/13 04:09:08;;;;;;;6.70;2.42;;;10.10;99.90;;;;;;6126874;23;20024;-91
2023/03/13 04:11:33;;;;;;;7.03;2.50;;;10.20;99.90;;;;;;6152693;23;20072;-91
2023/03/13 04:13:59;;;;;;;10.48;2.67;;;10.20;99.90;;;;;;6151327;23;20013;-91
2023/03/13 04:16:24;;;;;;;7.38;3.03;;;10.30;99.90;;;;;;6152413;23;20511;-90
2023/03/13 04:18:50;;;;;;;9.02;2.78;;;10.30;99.90;;;;;;6127766;23;20048;-92
2023/03/13 04:21:15;;;;;;;7.22;2.72;;;10.30;99.90;;;;;;6127422;23;20021;-92
2023/03/13 04:23:41;;;;;;;8.48;2.97;;;10.30;99.90;;;;;;6128049;23;20481;-90
2023/03/13 04:26:06;;;;;;;7.57;2.80;;;10.40;99.90;;;;;;6152644;23;20092;-90
2023/03/13 04:28:32;;;;;;;9.88;2.72;;;10.40;99.90;;;;;;6151486;23;20024;-91
2023/03/13 04:30:58;;;;;;;7.30;3.08;;;10.40;99.90;;;;;;6152846;23;20464;-91
2023/03/13 04:33:24;;;;;;;7.82;2.60;;;10.50;99.90;;;;;;6128077;23;20351;-91
2023/03/13 04:35:49;;;;;;;8.05;2.70;;;10.50;99.90;;;;;;6152381;23;20088;-91
2023/03/13 04:38:15;;;;;;;7.03;2.58;;;10.50;99.90;;;;;;6152389;23;20059;-91
2023/03/13 04:40:42;;;;;;;7.03;2.80;;;10.50;99.90;;;;;;6151818;23;20526;-91
2023/03/13 04:43:08;;;;;;;7.28;2.40;;;10.60;99.90;;;;;;6128755;23;20032;-90
2023/03/13 04:45:34;;;;;;;7.97;2.42;;;10.60;99.90;;;;;;6151939;23;20361;-91
2023/03/13 04:47:59;;;;;;;7.07;2.72;;;10.70;99.90;;;;;;6153605;23;20014;-91
2023/03/13 04:50:25;;;;;;;9.63;3.58;;;10.70;99.90;;;;;;6129706;23;20156;-91
2023/03/13 04:52:51;;;;;;;8.40;3.22;;;10.70;99.90;;;;;;6152922;23;20013;-91
2023/03/13 04:55:16;;;;;;;6.10;2.42;;;10.80;99.90;;;;;;6153037;23;20014;-91
2023/03/13 04:57:42;;;;;;;8.63;2.95;;;10.80;99.90;;;;;;6151875;23;20343;-92
2023/03/13 05:00:09;;;;;;;8.15;3.30;;;10.80;99.90;;;;;;6152272;23;20028;-91
2023/03/13 05:02:34;;;;;;;6.50;2.75;;;10.90;99.90;;;;;;6152162;23;20013;-92
2023/03/13 05:05:00;;;;;;;7.15;3.00;;;10.90;99.90;;;;;;6151758;23;20088;-91
2023/03/13 05:07:26;;;;;;;7.15;3.08;;;10.90;99.90;;;;;;6127056;23;20117;-93
2023/03/13 05:09:51;;;;;;;6.88;2.88;;;10.90;99.90;;;;;;6151648;23;20331;-93
2023/03/13 05:12:17;;;;;;;6.75;2.80;;;10.90;99.90;;;;;;6152384;23;20454;-91
2023/03/13 05:14:42;;;;;;;7.90;3.05;;;10.90;99.90;;;;;;6127362;23;20065;-93
2023/03/13 05:17:09;;;;;;;6.43;2.63;;;11.00;99.90;;;;;;6152218;23;20226;-93
2023/03/13 05:19:35;;;;;;;7.30;3.25;;;11.00;99.90;;;;;;6151996;23;20060;-92
2023/03/13 05:22:01;;;;;;;7.20;3.05;;;11.00;99.90;;;;;;6127423;23;20394;-92
2023/03/13 05:24:26;;;;;;;8.95;3.08;;;11.10;99.90;;;;;;6152530;23;20017;-92
2023/03/13 05:26:52;;;;;;;7.10;2.85;;;11.10;99.90;;;;;;6127751;23;20394;-92
2023/03/13 05:29:17;;;;;;;7.88;3.50;;;11.20;99.90;;;;;;6127281;23;20017;-93
2023/03/13 05:31:43;;;;;;;6.68;2.72;;;11.20;99.90;;;;;;6152977;23;20017;-91
2023/03/13 05:34:09;;;;;;;6.20;3.22;;;11.30;99.90;;;;;;6151920;23;20013;-92
2023/03/13 05:36:34;;;;;;;8.13;3.75;;;11.30;99.90;;;;;;6152114;23;20096;-92
2023/03/13 05:39:00;;;;;;;7.25;2.88;;;11.30;99.90;;;;;;6150875;23;20021;-93
2023/03/13 05:41:25;;;;;;;8.65;3.85;;;11.40;99.90;;;;;;6152003;23;20364;-91
2023/03/13 05:43:51;;;;;;;7.22;3.25;;;11.40;99.90;;;;;;6153158;23;20013;-93
2023/03/13 05:46:17;;;;;;;8.90;3.92;;;11.40;99.90;;;;;;6153796;23;20009;-92
2023/03/13 05:48:44;;;;;;;9.85;4.30;;;11.50;99.90;;;;;;6153264;23;20441;-92
2023/03/13 05:51:10;;;;;;;9.15;4.40;;;11.50;99.90;;;;;;6153206;23;20014;-92
2023/03/13 05:53:35;;;;;;;10.98;4.53;;;11.50;99.90;;;;;;6153604;23;20072;-91
2023/03/13 05:56:01;;;;;;;7.05;3.10;;;11.60;99.90;;;;;;6153592;23;20014;-92
2023/03/13 05:58:26;;;;;;;8.18;3.75;;;11.60;99.90;;;;;;6153174;23;20017;-93
2023/03/13 06:00:52;;;;;;;11.43;5.00;;;11.60;99.90;;;;;;6154122;23;20100;-91
2023/03/13 06:03:18;;;;;;;8.52;3.70;;;11.70;99.90;;;;;;6153119;23;20100;-92
2023/03/13 06:05:43;;;;;;;11.35;4.65;;;11.70;99.90;;;;;;6153601;23;20398;-92
2023/03/13 06:08:09;;;;;;;11.23;4.57;;;11.70;99.90;;;;;;6153513;23;20361;-91
2023/03/13 06:10:35;;;;;;;9.38;4.28;;;11.70;99.90;;;;;;6154256;23;20068;-91
2023/03/13 06:13:00;;;;;;;9.73;4.35;;;11.80;99.90;;;;;;6129393;23;20361;-92
2023/03/13 06:15:26;;;;;;;9.70;4.90;;;11.80;99.90;;;;;;6152993;23;20021;-91
2023/03/13 06:17:51;;;;;;;8.35;3.55;;;11.80;99.90;;;;;;6153371;23;20017;-91
2023/03/13 06:20:17;;;;;;;10.50;4.18;;;11.90;99.90;;;;;;6128588;23;20024;-92
2023/03/13 06:22:43;;;;;;;9.63;4.43;;;11.90;99.90;;;;;;6129860;23;20117;-90
2023/03/13 06:25:09;;;;;;;9.25;3.88;;;11.90;99.90;;;;;;6154009;23;20017;-91
2023/03/13 06:27:35;;;;;;;9.40;4.70;;;12.00;99.90;;;;;;6153263;23;20028;-91
2023/03/13 06:30:00;;;;;;;9.57;4.32;;;12.00;99.90;;;;;;6129152;23;20357;-93
2023/03/13 06:32:27;;;;;;;9.38;4.22;;;12.10;99.90;;;;;;6153967;23;20561;-91
2023/03/13 06:34:52;;;;;;;7.78;3.42;;;12.20;99.90;;;;;;6152775;23;20485;-92
2023/03/13 06:37:18;;;;;;;9.73;4.40;;;12.20;99.90;;;;;;6154293;23;20033;-92
2023/03/13 06:39:43;;;;;;;11.23;4.07;;;12.30;99.90;;;;;;6153001;23;20465;-92
2023/03/13 06:42:09;;;;;;;8.90;3.67;;;12.30;99.90;;;;;;6153030;23;20018;-92
2023/03/13 06:44:35;;;;;;;9.55;4.03;;;12.40;99.90;;;;;;6129026;23;20363;-91
2023/03/13 06:47:00;;;;;;;12.27;4.40;;;12.40;99.90;;;;;;6128710;23;20108;-92
2023/03/13 06:49:26;;;;;;;9.73;3.90;;;12.50;99.90;;;;;;6153147;23;20017;-91
2023/03/13 06:51:52;;;;;;;11.63;3.90;;;12.50;99.90;;;;;;6128451;23;20014;-91
2023/03/13 06:54:17;;;;;;;9.55;3.88;;;12.50;99.90;;;;;;6153572;23;20097;-91
2023/03/13 06:56:43;;;;;;;12.40;3.78;;;12.50;99.90;;;;;;6129451;23;20024;-92
2023/03/13 06:59:08;;;;;;;10.43;3.83;;;12.60;99.90;;;;;;6127992;23;20406;-93
2023/03/13 07:01:34;;;;;;;10.75;3.63;;;12.60;99.90;;;;;;6129190;23;20013;-91
2023/03/13 07:04:00;;;;;;;9.88;3.42;;;12.60;99.90;;;;;;6153028;23;20362;-91
2023/03/13 07:06:25;;;;;;;11.77;4.30;;;12.70;99.90;;;;;;6153407;23;20017;-91
2023/03/13 07:08:51;;;;;;;12.18;4.00;;;12.70;99.90;;;;;;6128376;23;20009;-91
2023/03/13 07:11:17;;;;;;;12.57;3.90;;;12.70;99.90;;;;;;6153370;23;20076;-92
2023/03/13 07:13:42;;;;;;;11.23;3.75;;;12.70;99.90;;;;;;6153766;23;20025;-92
2023/03/13 07:16:11;;;;;;;13.02;5.10;;;12.70;99.90;;;;;;6127828;23;20078;-92
2023/03/13 07:18:40;;;;;;;10.57;3.47;;;12.70;99.90;;;;;;6153309;23;20022;-91
2023/03/13 07:21:06;;;;;;;9.32;2.88;;;12.80;99.90;;;;;;6153225;23;20048;-92
2023/03/13 07:23:34;;;;;;;12.35;3.55;;;12.70;99.90;;;;;;6129073;23;20017;-92
2023/03/13 07:26:03;;;;;;;11.60;3.55;;;12.80;99.90;;;;;;6153377;23;20017;-93
2023/03/13 07:28:32;;;;;;;9.40;3.08;;;12.80;99.90;;;;;;6152295;23;20014;-92
2023/03/13 07:31:04;;;;;;;9.30;2.72;;;12.80;99.90;;;;;;6153311;23;20637;-91
2023/03/13 07:33:29;;;;;;;5.82;2.25;;;12.70;99.90;;;;;;6128503;23;20021;-92
2023/03/13 07:35:55;;;;;;;13.30;3.40;;;12.80;99.90;;;;;;6153110;23;20092;-92
2023/03/13 07:38:21;;;;;;;12.65;3.45;;;12.80;99.90;;;;;;6153191;23;20028;-91
2023/03/13 07:40:51;;;;;;;8.88;2.92;;;12.80;99.90;;;;;;6152872;23;20017;-92
2023/03/13 07:43:17;;;;;;;9.45;3.08;;;12.90;99.90;;;;;;6153183;23;20056;-92
2023/03/13 07:45:55;;;;;;;11.00;4.20;;;12.90;99.90;;;;;;6128355;23;20068;-91
2023/03/13 07:48:22;;;;;;;12.57;3.58;;;12.90;99.90;;;;;;6152714;23;20077;-92
2023/03/13 07:50:48;;;;;;;11.55;2.58;;;12.90;99.90;;;;;;6128049;23;20449;-92
2023/03/13 07:53:19;;;;;;;7.75;2.97;;;13.00;99.90;;;;;;6128383;23;20024;-92
2023/03/13 07:55:52;;;;;;;8.10;2.78;;;12.90;99.90;;;;;;6153452;23;20023;-92
2023/03/13 07:58:18;;;;;;;9.93;3.20;;;13.00;99.90;;;;;;6127888;23;20018;-91
2023/03/13 08:00:43;;;;;;;9.35;3.38;;;13.00;99.90;;;;;;6152790;23;20017;-92
2023/03/13 08:03:09;;;;;;;10.85;2.72;;;13.00;99.90;;;;;;6153132;23;20021;-91
2023/03/13 08:05:34;;;;;;;8.52;3.28;;;13.00;99.90;;;;;;6127702;23;20018;-92
2023/03/13 08:08:00;;;;;;;8.85;3.08;;;13.00;99.90;;;;;;6152402;23;20048;-91
2023/03/13 08:10:26;;;;;;;8.18;2.78;;;13.00;99.90;;;;;;6151907;23;20488;-92
2023/03/13 08:12:51;;;;;;;11.55;3.08;;;13.00;99.90;;;;;;6126658;23;20022;-91
2023/03/13 08:15:20;;;;;;;7.72;2.67;;;12.90;99.90;;;;;;6152389;23;20013;-91
2023/03/13 08:17:46;;;;;;;7.85;2.70;;;12.90;99.90;;;;;;6151612;23;20024;-93
2023/03/13 08:20:11;;;;;;;9.98;3.55;;;12.80;99.90;;;;;;6152751;23;20053;-91
2023/03/13 08:22:37;;;;;;;11.65;3.15;;;12.80;99.90;;;;;;6127260;23;20022;-93
2023/03/13 08:25:03;;;;;;;10.80;4.65;;;12.70;99.90;;;;;;6152967;23;20018;-91
2023/03/13 08:27:29;;;;;;;10.40;3.30;;;12.70;99.90;;;;;;6152159;23;20520;-91
2023/03/13 08:29:55;;;;;;;7.57;2.20;;;12.80;99.90;;;;;;6151903;23;20017;-91
2023/03/13 08:32:20;;;;;;;8.23;2.45;;;12.70;99.90;;;;;;6153207;23;20013;-91
2023/03/13 08:34:46;;;;;;;10.75;2.83;;;12.80;99.90;;;;;;6128199;23;20009;-91
2023/03/13 08:37:14;;;;;;;6.68;2.20;;;12.70;99.90;;;;;;6152360;23;20337;-91
2023/03/13 08:39:40;;;;;;;8.63;2.60;;;12.80;99.90;;;;;;6124198;23;20017;-90
2023/03/13 08:42:10;;;;;;;10.90;3.30;;;12.90;99.90;;;;;;6149951;23;20101;-91
2023/03/13 08:44:35;;;;;;;8.52;1.80;;;12.90;99.90;;;;;;6150936;23;20070;-90
2023/03/13 08:47:01;;;;;;;9.13;2.38;;;12.90;99.90;;;;;;6125896;23;20022;-90
2023/03/13 08:49:28;;;;;;;8.20;2.72;;;12.90;99.90;;;;;;6150990;23;20045;-90
2023/03/13 08:51:55;;;;;;;8.77;3.20;;;13.00;99.90;;;;;;6151022;23;20021;-91
2023/03/13 08:54:21;;;;;;;7.25;2.08;;;13.00;99.90;;;;;;6126345;23;20397;-91
2023/03/13 08:56:46;;;;;;;5.75;1.67;;;13.10;99.90;;;;;;6151394;23;20507;-91
2023/03/13 08:59:14;;;;;;;6.97;1.92;;;13.10;99.90;;;;;;6125860;23;20017;-91
2023/03/13 09:01:39;;;;;;;6.15;1.35;;;13.10;99.90;;;;;;6126701;23;20021;-90
2023/03/13 09:04:06;;;;;;;6.22;1.60;;;13.20;99.90;;;;;;6151679;23;20026;-91
2023/03/13 09:06:36;;;;;;;8.73;2.83;;;13.30;99.90;;;;;;6150245;23;20017;-90
2023/03/13 09:09:04;;;;;;;7.78;1.98;;;13.50;99.90;;;;;;6149239;23;20450;-90
2023/03/13 09:11:31;;;;;;;6.07;1.75;;;13.70;99.90;;;;;;6123811;23;20361;-90
2023/03/13 09:13:59;;;;;;;7.05;2.17;;;13.80;99.90;;;;;;6123788;23;20018;-90
2023/03/13 09:16:28;;;;;;;4.28;1.65;;;13.90;99.90;;;;;;6125486;23;20037;-92
2023/03/13 09:18:55;;;;;;;4.20;1.45;;;14.00;99.90;;;;;;6127446;23;20018;-90
2023/03/13 09:21:23;;;;;;;4.93;1.55;;;14.00;99.90;;;;;;6152279;23;20152;-91
2023/03/13 09:23:50;;;;;;;6.85;2.03;;;14.00;99.90;;;;;;6151177;23;20017;-90
2023/03/13 09:26:17;;;;;;;7.82;1.42;;;14.00;99.90;;;;;;6152701;23;20018;-92
2023/03/13 09:28:43;;;;;;;6.63;1.63;;;13.90;99.90;;;;;;6128234;23;20017;-92
2023/03/13 09:31:17;;;;;;;4.38;1.38;;;13.80;99.90;;;;;;6127149;23;20020;-90
2023/03/13 09:33:43;;;;;;;5.13;1.40;;;13.80;99.90;;;;;;6153786;23;20524;-91
2023/03/13 09:36:10;;;;;;;5.63;1.60;;;13.80;99.90;;;;;;6153492;23;20013;-91
2023/03/13 09:38:37;;;;;;;6.07;1.50;;;13.70;99.90;;;;;;6152607;23;20148;-90
2023/03/13 09:41:54;;;;;;;7.47;2.22;;;13.70;99.90;;;;;;6153213;23;20017;-90
2023/03/13 09:44:25;;;;;;;3.90;1.13;;;13.70;99.90;;;;;;6098239;23;20037;-89
2023/03/13 09:47:00;;;;;;;4.63;1.65;;;13.70;99.90;;;;;;6097217;23;20362;-90
2023/03/13 09:49:33;;;;;;;8.85;2.50;;;13.70;99.90;;;;;;6073671;23;20405;-91
2023/03/13 09:52:22;;;;;;;7.72;1.85;;;13.70;99.90;;;;;;6097418;23;20018;-90
2023/03/13 09:54:47;;;;;;;5.43;1.38;;;13.70;99.90;;;;;;6098803;23;20476;-91
2023/03/13 09:57:37;;;;;;;8.02;2.10;;;13.60;99.90;;;;;;6073743;23;20021;-90
2023/03/13 10:00:25;;;;;;;6.47;2.20;;;13.60;99.90;;;;;;6098257;23;20024;-90
2023/03/13 10:03:06;;;;;;;7.38;2.13;;;13.70;99.90;;;;;;6097931;23;20021;-91
2023/03/13 10:05:33;;;;;;;4.85;1.50;;;13.70;99.90;;;;;;6096469;23;20025;-90
2023/03/13 10:08:26;;;;;;;6.25;1.52;;;13.70;99.90;;;;;;6095785;23;20018;-91
2023/03/13 10:11:02;;;;;;;7.63;2.25;;;13.70;99.90;;;;;;6092123;23;20553;-90
2023/03/13 10:13:40;;;;;;;7.13;1.40;;;13.80;99.90;;;;;;6097153;23;20014;-90
2023/03/13 10:16:28;;;;;;;7.22;2.00;;;13.90;99.90;;;;;;6096332;23;20524;-90
2023/03/13 10:18:57;;;;;;;6.38;1.58;;;13.90;99.90;;;;;;6098023;23;20018;-90
2023/03/13 10:21:29;;;;;;;8.68;1.75;;;13.90;99.90;;;;;;6126361;23;20072;-92
2023/03/13 10:24:01;;;;;;;;;;;13.80;99.90;;;;;;6152195;23;20028;-91
2023/03/13 10:26:31;;;;;;;5.95;1.45;;;13.90;99.90;;;;;;6127181;23;19951;-91
2023/03/13 10:29:19;;;;;;;12.18;2.67;;;14.10;99.90;;;;;;6151865;23;20014;-91
2023/03/13 10:31:56;;;;;;;8.77;2.65;;;14.10;99.90;;;;;;6151570;23;20020;-90
2023/03/13 10:34:22;;;;;;;8.13;2.22;;;14.20;99.90;;;;;;6153293;23;20063;-91
2023/03/13 10:36:53;;;;;;;5.35;1.65;;;14.30;99.90;;;;;;6128455;23;20018;-91
2023/03/13 10:39:22;;;;;;;4.55;1.30;;;14.20;99.90;;;;;;6152666;23;20021;-91
2023/03/13 10:41:49;;;;;;;7.60;2.13;;;14.30;99.90;;;;;;6128760;23;20018;-92
2023/03/13 10:44:17;;;;;;;6.68;1.48;;;14.30;99.90;;;;;;6153182;23;20151;-91
2023/03/13 10:46:45;;;;;;;10.48;2.58;;;14.30;99.90;;;;;;6127858;23;20060;-90
2023/03/13 10:49:22;;;;;;;6.70;1.48;;;14.30;99.90;;;;;;6127007;23;20362;-91
2023/03/13 10:51:55;;;;;;;6.63;1.40;;;14.30;99.90;;;;;;6128045;23;20052;-92
2023/03/13 10:54:34;;;;;;;8.30;2.65;;;14.30;99.90;;;;;;6128643;23;20020;-91
2023/03/13 10:57:17;;;;;;;6.28;1.60;;;14.40;99.90;;;;;;6153425;23;20100;-92
2023/03/13 10:59:46;;;;;;;4.88;1.77;;;14.40;99.90;;;;;;6152478;23;20021;-92
2023/03/13 11:02:34;;;;;;;11.38;2.45;;;14.40;99.90;;;;;;6127213;23;20021;-91
2023/03/13 11:05:00;;;;;;;7.75;1.40;;;14.50;99.90;;;;;;6128043;23;20508;-91
2023/03/13 11:07:33;;;;;;;5.93;1.55;;;14.50;99.90;;;;;;6151614;23;20520;-92
2023/03/13 11:10:20;;;;;;;9.07;1.98;;;14.50;99.90;;;;;;6152688;23;20019;-92
2023/03/13 11:12:51;;;;;;;5.32;1.40;;;14.60;99.90;;;;;;6129019;23;20054;-92
2023/03/13 11:15:28;;;;;;;7.70;2.08;;;14.70;99.90;;;;;;6128692;23;20113;-93
2023/03/13 11:18:21;;;;;;;10.63;2.20;;;14.90;99.90;;;;;;6153347;23;20480;-93
2023/03/13 11:20:48;;;;;;;3.80;0.95;;;15.00;99.90;;;;;;6128596;23;20049;-95
2023/03/13 11:23:20;;;;;;;4.70;1.23;;;15.10;99.90;;;;;;6153681;23;20029;-94
2023/03/13 11:25:56;;;;;;;8.55;1.50;;;15.30;99.90;;;;;;6152675;23;20028;-93
2023/03/13 11:28:29;;;;;;;6.82;1.65;;;15.60;99.90;;;;;;6125872;23;20025;-93
2023/03/13 11:31:12;;;;;;;5.22;1.20;;;15.90;98.40;;;;;;6152499;23;20068;-93
2023/03/13 11:34:03;;;;;;;6.57;1.65;;;16.00;90.80;;;;;;6128375;23;20353;-94
2023/03/13 11:36:42;;;;;;;5.95;1.60;;;16.10;89.60;;;;;;6153210;23;20331;-95
2023/03/13 11:39:43;;;;;;;7.40;1.73;;;16.20;90.20;;;;;;6127112;23;20477;-94
2023/03/13 11:42:48;;;;;;;6.70;1.90;;;16.30;91.30;;;;;;6128614;23;20584;-93
2023/03/13 11:45:38;;;;;;;5.43;1.50;;;16.30;90.30;;;;;;6127928;23;20028;-93
2023/03/13 11:48:40;;;;;;;7.82;1.83;;;16.30;91.00;;;;;;6126463;23;20017;-95
2023/03/13 11:51:16;;;;;;;6.38;1.60;;;16.20;89.90;;;;;;6130044;23;20021;-93
2023/03/13 11:54:00;;;;;;;5.35;1.60;;;16.20;90.80;;;;;;6127052;23;20033;-94
2023/03/13 11:56:43;;;;;;;8.38;2.28;;;16.20;90.20;;;;;;6153378;23;20028;-94
2023/03/13 11:59:14;;;;;;;;;;;16.30;88.70;;;;;;6152346;23;20087;-92
2023/03/13 12:01:52;;;;;;;6.03;1.92;;;16.10;88.60;;;;;;6152453;23;19921;-92
2023/03/13 12:04:34;;;;;;;7.68;1.88;;;16.10;91.10;;;;;;6127949;23;20100;-93
2023/03/13 12:07:02;;;;;;;6.30;1.67;;;16.30;91.60;;;;;;6152541;23;20017;-93
2023/03/13 12:09:39;;;;;;;6.78;1.67;;;16.50;92.70;;;;;;6127530;23;20104;-94
2023/03/13 12:12:21;;;;;;;6.82;1.90;;;16.60;92.40;;;;;;6151796;23;20049;-94
2023/03/13 12:15:02;;;;;;;7.47;1.90;;;16.70;89.10;;;;;;6128249;23;20010;-95
2023/03/13 12:17:31;;;;;;;8.82;2.22;;;16.70;87.40;;;;;;6127514;23;20510;-93
2023/03/13 12:20:13;;;;;;;8.75;1.85;;;16.90;90.20;;;;;;6152509;23;20052;-95
2023/03/13 12:22:56;;;;;;;7.95;2.15;;;16.90;81.00;;;;;;6153138;23;20096;-93
2023/03/13 12:25:29;;;;;;;10.68;2.33;;;16.90;80.30;;;;;;6149854;23;20090;-93
2023/03/13 12:28:15;;;;;;;7.68;1.88;;;16.90;80.30;;;;;;6149592;23;20010;-94
2023/03/13 12:31:07;;;;;;;7.43;1.77;;;16.80;80.10;;;;;;6124115;23;20097;-94
2023/03/13 12:33:44;;;;;;;4.85;1.40;;;16.70;77.80;;;;;;6128203;23;20017;-94
2023/03/13 12:36:30;;;;;;;9.32;1.85;;;16.60;77.60;;;;;;6153146;23;20029;-93
2023/03/13 12:39:19;;;;;;;6.50;1.73;;;16.60;77.90;;;;;;6151071;23;20022;-94
2023/03/13 12:41:53;;;;;;;10.15;1.83;;;16.70;77.70;;;;;;6151595;23;20025;-94
2023/03/13 12:44:19;;;;;;;8.43;1.83;;;16.90;75.90;;;;;;6126781;23;20014;-93
2023/03/13 12:47:08;;;;;;;6.95;2.22;;;17.00;76.20;;;;;;6127474;23;20017;-92
2023/03/13 12:49:59;;;;;;;7.18;1.67;;;17.00;74.50;;;;;;6126673;23;20014;-93
2023/03/13 12:52:27;;;;;;;8.88;1.92;;;17.00;74.20;;;;;;6151806;23;20021;-94
2023/03/13 12:55:36;;;;;;;8.63;1.95;;;17.00;74.30;;;;;;6127079;23;20022;-94
2023/03/13 12:58:29;;;;;;;7.18;1.90;;;17.10;73.80;;;;;;6126624;23;20100;-94
2023/03/13 13:01:00;;;;;;;;;;;17.10;73.90;;;;;;6151948;23;20069;-94
2023/03/13 13:03:38;;;;;;;7.35;1.80;;;17.10;74.60;;;;;;6151855;23;20332;-93